Time;durP1;ratioP1;P1;durP2;ratioP2;P2;SDS_P1;SDS_P2;PMS_P1;PMS_P2;Temp;Humidity;BMP_temperature;BMP_pressure;BME280_temperature;BME280_humidity;BME280_pressure;Samples;Min_cycle;Max_cycle;Signal;HPM_P1;HPM_P2
2021/11/08 00:02:12;;;;;;;19.08;3.53;;;;;;;16.26;48.53;101820.84;5025200;28;20032;-58
2021/11/08 00:04:37;;;;;;;8.55;2.45;;;;;;;16.25;49.58;101827.22;5025000;28;20025;-58
2021/11/08 00:07:04;;;;;;;11.90;2.50;;;;;;;16.20;48.99;101816.84;4990322;28;20029;-57
2021/11/08 00:09:30;;;;;;;18.40;3.53;;;;;;;16.22;48.25;101817.56;5024201;28;20068;-58
2021/11/08 00:11:56;;;;;;;16.52;2.97;;;;;;;16.21;48.24;101817.72;5005543;28;20493;-58
2021/11/08 00:14:23;;;;;;;14.15;3.20;;;;;;;16.19;48.74;101819.72;5024415;28;20017;-57
2021/11/08 00:21:55;;;;;;;7.55;1.90;;;;;;;16.18;48.37;101810.75;5023485;28;20029;-58
2021/11/08 00:24:24;;;;;;;17.08;2.92;;;;;;;16.17;49.59;101813.56;5007403;28;20130;-58
2021/11/08 00:26:50;;;;;;;16.50;3.75;;;;;;;16.15;48.94;101810.16;5022416;28;20029;-58
2021/11/08 00:29:16;;;;;;;12.90;2.60;;;;;;;16.17;48.62;101814.44;5007261;28;20026;-58
2021/11/08 00:31:41;;;;;;;9.13;3.33;;;;;;;16.14;49.19;101803.91;5021704;28;20048;-58
2021/11/08 00:34:07;;;;;;;19.05;3.30;;;;;;;16.16;47.75;101801.06;5024597;28;20032;-58
2021/11/08 00:36:32;;;;;;;9.15;3.08;;;;;;;16.14;48.55;101808.44;5025050;28;20470;-58
2021/11/08 00:38:58;;;;;;;13.90;3.47;;;;;;;16.16;47.85;101828.09;5024455;28;20048;-58
2021/11/08 00:41:23;;;;;;;12.23;3.03;;;;;;;16.14;47.86;101816.56;5005527;28;20025;-58
2021/11/08 00:43:49;;;;;;;10.40;3.08;;;;;;;16.12;49.13;101821.25;5023396;28;20103;-58
2021/11/08 00:46:14;;;;;;;14.52;2.50;;;;;;;16.12;47.96;101815.84;5022122;28;20478;-58
2021/11/08 00:48:40;;;;;;;20.27;4.53;;;;;;;16.04;48.97;101808.44;5024250;28;20032;-58
2021/11/08 00:51:06;;;;;;;23.35;3.17;;;;;;;16.06;48.43;101816.41;5006811;28;20597;-58
2021/11/08 00:53:32;;;;;;;11.57;3.20;;;;;;;16.04;48.12;101818.41;5023738;28;20022;-58
2021/11/08 00:56:01;;;;;;;10.25;2.60;;;;;;;16.01;48.08;101819.53;5022140;28;20029;-58
2021/11/08 01:00:52;;;;;;;14.52;3.75;;;;;;;15.93;49.30;101821.22;5022868;28;20029;-59
2021/11/08 01:03:21;;;;;;;7.55;2.47;;;;;;;15.92;48.09;101827.63;5021913;28;20026;-58
2021/11/08 01:05:46;;;;;;;12.27;3.03;;;;;;;15.90;48.48;101835.00;5026248;28;20017;-58
2021/11/08 01:08:12;;;;;;;13.88;3.08;;;;;;;15.89;49.24;101830.59;5013891;28;20430;-58
2021/11/08 01:10:37;;;;;;;11.13;3.10;;;;;;;15.87;48.44;101838.84;4972084;28;20025;-59
2021/11/08 01:13:03;;;;;;;14.57;2.97;;;;;;;15.85;48.76;101837.28;5014783;28;20026;-58
2021/11/08 01:15:28;;;;;;;16.70;3.95;;;;;;;15.86;49.03;101841.66;5006087;28;20030;-58
2021/11/08 01:17:54;;;;;;;14.23;3.17;;;;;;;15.85;49.45;101840.84;4995832;28;20115;-58
2021/11/08 01:20:21;;;;;;;13.40;2.75;;;;;;;15.84;48.06;101843.66;4998937;28;20086;-58
2021/11/08 01:22:46;;;;;;;13.75;3.00;;;;;;;15.85;48.06;101842.69;4981890;28;20034;-58
2021/11/08 01:25:12;;;;;;;21.05;3.25;;;;;;;15.85;47.96;101845.38;4998786;28;20018;-59
2021/11/08 01:27:49;;;;;;;13.52;2.95;;;;;;;15.84;48.15;101846.38;4964776;28;20033;-58
2021/11/08 01:30:20;;;;;;;20.83;3.55;;;;;;;15.87;49.30;101854.19;4982943;28;20026;-58
2021/11/08 01:33:10;;;;;;;13.70;3.30;;;;;;;15.84;49.33;101841.81;4998530;28;20154;-57
2021/11/08 01:35:41;;;;;;;10.20;3.25;;;;;;;15.88;49.45;101847.81;4998837;28;20109;-58
2021/11/08 01:40:35;;;;;;;16.48;3.17;;;;;;;15.92;48.07;101857.34;4998436;28;20050;-58
2021/11/08 01:43:00;;;;;;;13.70;3.95;;;;;;;15.93;48.40;101848.25;4998163;28;20489;-58
2021/11/08 01:45:26;;;;;;;16.52;3.53;;;;;;;15.94;49.53;101844.56;5017571;28;20018;-58
2021/11/08 01:47:51;;;;;;;14.90;4.05;;;;;;;15.95;48.34;101851.66;5018391;28;20090;-58
2021/11/08 01:50:17;;;;;;;16.67;3.40;;;;;;;15.97;48.41;101847.00;5017891;28;20018;-57
2021/11/08 01:52:43;;;;;;;17.98;3.38;;;;;;;15.95;49.35;101840.84;5017768;28;20037;-58
2021/11/08 01:55:08;;;;;;;15.48;3.40;;;;;;;15.95;47.90;101843.56;5000001;28;20021;-58
2021/11/08 01:57:36;;;;;;;17.67;3.25;;;;;;;15.95;48.40;101847.13;5017733;28;20030;-58
2021/11/08 02:00:05;;;;;;;11.20;3.28;;;;;;;15.96;48.46;101853.38;5017868;28;20026;-57
2021/11/08 02:02:31;;;;;;;9.90;3.10;;;;;;;15.98;49.52;101848.69;5000089;28;20030;-58
2021/11/08 02:04:56;;;;;;;9.23;2.17;;;;;;;15.99;49.40;101850.41;5000066;28;20028;-57
2021/11/08 02:07:21;;;;;;;13.98;2.70;;;;;;;15.99;48.17;101853.09;5017178;28;20049;-58
2021/11/08 02:09:47;;;;;;;10.48;3.03;;;;;;;15.99;48.98;101847.69;5000043;28;20022;-58
2021/11/08 02:12:13;;;;;;;15.52;2.70;;;;;;;15.97;49.32;101841.59;5017236;28;20022;-58
2021/11/08 02:14:39;;;;;;;17.55;4.00;;;;;;;16.01;48.15;101856.50;5017350;28;20030;-58
2021/11/08 02:17:06;;;;;;;13.23;3.25;;;;;;;16.00;49.03;101854.78;5017439;28;20018;-58
2021/11/08 02:19:31;;;;;;;17.25;4.28;;;;;;;15.99;48.34;101848.56;5017396;28;20021;-57
2021/11/08 02:21:59;;;;;;;9.90;2.40;;;;;;;15.99;49.33;101853.09;4993969;28;20506;-58
2021/11/08 02:24:26;;;;;;;9.05;2.90;;;;;;;15.96;49.12;101847.97;4997831;28;20361;-58
2021/11/08 02:26:52;;;;;;;10.90;2.67;;;;;;;16.00;48.59;101854.78;4997738;28;20062;-58
2021/11/08 02:29:17;;;;;;;9.93;2.60;;;;;;;15.98;49.66;101852.25;4996451;28;20074;-58
2021/11/08 02:31:43;;;;;;;14.95;3.08;;;;;;;16.00;49.54;101849.38;4997218;28;20394;-58
2021/11/08 02:34:09;;;;;;;15.73;2.75;;;;;;;15.99;49.40;101856.66;4997334;28;20076;-57
2021/11/08 02:36:41;;;;;;;8.80;2.72;;;;;;;16.00;48.08;101858.34;4997931;28;20022;-57
2021/11/08 02:39:06;;;;;;;14.75;2.60;;;;;;;16.01;48.89;101859.22;4997515;28;20046;-58
2021/11/08 02:41:32;;;;;;;12.63;2.85;;;;;;;16.00;48.90;101854.78;4997813;28;20030;-58
2021/11/08 02:43:58;;;;;;;15.02;2.75;;;;;;;16.00;48.39;101852.09;4997408;28;20030;-58
2021/11/08 02:46:26;;;;;;;10.98;2.75;;;;;;;16.00;48.49;101852.94;4997308;28;20471;-58
2021/11/08 02:48:52;;;;;;;11.52;2.47;;;;;;;16.01;47.82;101856.50;4980280;28;20141;-58
2021/11/08 02:51:26;;;;;;;11.63;2.53;;;;;;;16.01;48.46;101861.91;4996972;28;20037;-58
2021/11/08 02:53:59;;;;;;;18.95;3.40;;;;;;;16.01;48.72;101861.91;4997159;28;20431;-58
2021/11/08 02:56:24;;;;;;;21.45;2.78;;;;;;;16.00;48.19;101862.91;4980309;28;20030;-58
2021/11/08 02:58:50;;;;;;;14.57;3.40;;;;;;;16.01;49.66;101861.91;4996979;28;20031;-58
2021/11/08 03:01:20;;;;;;;18.00;3.85;;;;;;;16.01;48.22;101861.91;4996825;28;20026;-58
2021/11/08 03:03:49;;;;;;;16.73;3.30;;;;;;;15.99;49.66;101856.66;4979244;28;20022;-58
2021/11/08 03:06:36;;;;;;;20.67;3.72;;;;;;;15.99;48.59;101856.66;4979020;28;20046;-58
2021/11/08 03:09:17;;;;;;;13.85;2.72;;;;;;;16.01;48.35;101867.31;4996071;28;20038;-58
2021/11/08 03:11:43;;;;;;;12.30;3.28;;;;;;;16.00;49.59;101863.75;4996933;28;20030;-58
2021/11/08 03:14:13;;;;;;;19.80;3.35;;;;;;;15.99;48.05;101866.63;4996754;28;20034;-58
2021/11/08 03:19:36;;;;;;;16.00;3.00;;;;;;;15.97;48.91;101865.91;4971093;28;20030;-57
2021/11/08 03:22:11;;;;;;;18.98;3.55;;;;;;;15.98;49.75;101856.78;4996359;28;20041;-57
2021/11/08 03:24:42;;;;;;;12.05;3.88;;;;;;;15.97;49.18;101849.69;4979330;28;20490;-58
2021/11/08 03:29:51;;;;;;;20.10;3.75;;;;;;;15.97;48.67;101850.53;4996727;28;20042;-57
2021/11/08 03:32:17;;;;;;;11.40;2.92;;;;;;;15.98;48.07;101854.94;4978755;28;20397;-58
2021/11/08 03:34:59;;;;;;;15.73;3.45;;;;;;;15.98;49.46;101843.28;4995577;28;20109;-58
2021/11/08 03:37:26;;;;;;;12.10;3.60;;;;;;;15.97;49.69;101853.22;4964223;28;20026;-58
2021/11/08 03:39:51;;;;;;;15.35;2.97;;;;;;;15.97;49.50;101855.09;4996197;28;20050;-58
2021/11/08 03:42:18;;;;;;;14.15;3.22;;;;;;;15.94;48.95;101855.38;5004904;28;20029;-58
2021/11/08 03:44:45;;;;;;;20.67;3.58;;;;;;;15.96;48.03;101859.66;4998330;28;20091;-57
2021/11/08 03:47:11;;;;;;;17.50;3.90;;;;;;;15.97;49.48;101855.09;5015710;28;20030;-57
2021/11/08 03:49:37;;;;;;;8.65;2.80;;;;;;;15.96;49.46;101854.25;5015608;28;20379;-58
2021/11/08 03:52:03;;;;;;;10.98;3.40;;;;;;;15.96;48.10;101858.78;5015569;28;20129;-58
2021/11/08 03:54:29;;;;;;;10.38;3.40;;;;;;;15.96;48.50;101864.19;4998071;28;20475;-57
2021/11/08 03:56:55;;;;;;;20.02;5.63;;;;;;;15.96;48.12;101866.91;5015452;28;20083;-58
2021/11/08 03:59:20;;;;;;;18.83;3.85;;;;;;;15.94;49.11;101868.88;5015281;28;20049;-58
2021/11/08 04:01:46;;;;;;;12.20;2.80;;;;;;;15.94;49.19;101874.28;5015532;28;20026;-58
2021/11/08 04:04:11;;;;;;;16.55;2.83;;;;;;;15.95;49.67;101878.69;4998011;28;20026;-58
2021/11/08 04:06:39;;;;;;;11.10;3.47;;;;;;;15.92;48.97;101878.97;5015409;28;20053;-57
2021/11/08 04:09:08;;;;;;;18.83;3.15;;;;;;;15.92;49.38;101876.25;5015651;28;20053;-57
2021/11/08 04:11:33;;;;;;;14.85;3.38;;;;;;;15.91;49.39;101877.25;5015348;28;20022;-58
2021/11/08 04:13:59;;;;;;;13.80;2.90;;;;;;;15.91;49.35;101883.53;5015260;28;20026;-58
2021/11/08 04:16:27;;;;;;;26.77;3.83;;;;;;;15.89;49.40;101890.91;5014747;28;20026;-58
2021/11/08 04:18:54;;;;;;;10.95;3.33;;;;;;;15.88;48.07;101889.22;4998080;28;20032;-58
2021/11/08 04:21:22;;;;;;;11.95;3.25;;;;;;;15.89;48.48;101901.72;5015506;28;20072;-57
2021/11/08 04:23:47;;;;;;;15.90;3.10;;;;;;;15.88;49.34;101899.16;5015358;28;20042;-57
2021/11/08 04:26:18;;;;;;;19.60;3.00;;;;;;;15.87;49.48;101897.44;5015444;28;20044;-58
2021/11/08 04:28:51;;;;;;;15.10;3.15;;;;;;;15.84;48.35;101897.72;5015365;28;20029;-57
2021/11/08 04:31:17;;;;;;;14.02;3.30;;;;;;;15.84;48.65;101895.88;5015144;28;20038;-58
2021/11/08 04:33:46;;;;;;;10.48;2.90;;;;;;;15.79;48.27;101897.25;4997301;28;20117;-58
2021/11/08 04:39:06;;;;;;;15.13;3.05;;;;;;;15.74;48.99;101893.13;5015104;28;20037;-61
2021/11/08 04:44:12;;;;;;;13.18;4.68;;;;;;;15.67;48.08;101905.47;4998644;28;20030;-59
2021/11/08 04:54:59;;;;;;;10.77;2.80;;;;;;;15.50;49.41;101900.69;5018180;28;20096;-57
2021/11/08 05:22:27;;;;;;;11.77;3.15;;;;;;;15.37;49.81;101900.03;4998790;28;20058;-58
2021/11/08 05:30:08;;;;;;;14.07;2.83;;;;;;;15.41;47.93;101914.97;4999343;28;20113;-58
2021/11/08 05:32:36;;;;;;;16.35;3.38;;;;;;;15.40;49.19;101915.09;4981383;28;20022;-58
2021/11/08 05:35:04;;;;;;;14.82;2.60;;;;;;;15.40;48.77;101924.06;4999067;28;20073;-58
2021/11/08 05:37:30;;;;;;;11.27;2.95;;;;;;;15.40;49.10;101915.97;4998361;28;20029;-58
2021/11/08 05:40:05;;;;;;;17.15;4.22;;;;;;;15.38;49.50;101917.91;4968725;28;20054;-58
2021/11/08 05:42:31;;;;;;;13.35;3.08;;;;;;;15.38;49.18;101917.91;4978659;28;20026;-58
2021/11/08 05:44:56;;;;;;;8.65;2.78;;;;;;;15.39;48.12;101916.09;4978529;28;20034;-58
2021/11/08 05:47:22;;;;;;;12.90;3.28;;;;;;;15.38;49.41;101915.22;4978275;28;20077;-58
2021/11/08 05:49:47;;;;;;;8.00;2.97;;;;;;;15.39;48.85;101927.75;4978278;28;20085;-58
2021/11/08 05:52:14;;;;;;;8.30;2.83;;;;;;;15.39;49.19;101935.84;4978281;28;20027;-58
2021/11/08 05:54:40;;;;;;;10.50;2.85;;;;;;;15.41;49.20;101933.03;4978331;28;20117;-58
2021/11/08 05:57:34;;;;;;;7.68;2.53;;;;;;;15.42;48.35;101940.97;4978162;28;20041;-58
2021/11/08 06:51:40;;;;;;;16.70;4.05;;;;;;;15.18;48.34;101991.69;5016359;28;20036;-57
2021/11/08 06:54:06;;;;;;;12.90;3.38;;;;;;;15.19;48.12;101992.56;5016407;28;20134;-58
2021/11/08 06:56:37;;;;;;;11.57;3.35;;;;;;;15.21;48.49;101996.84;5016813;28;20399;-58
2021/11/08 06:59:04;;;;;;;17.50;3.83;;;;;;;15.17;49.32;101987.28;4999217;28;20030;-58
2021/11/08 07:01:31;;;;;;;17.00;2.80;;;;;;;15.21;47.77;101991.44;5016227;28;20025;-58
2021/11/08 07:03:57;;;;;;;12.48;2.65;;;;;;;15.21;48.34;101986.03;5015996;28;20091;-58
2021/11/08 07:06:23;;;;;;;12.48;3.10;;;;;;;15.23;48.56;101991.28;5016142;28;20022;-59
2021/11/08 07:08:49;;;;;;;12.10;2.92;;;;;;;15.19;49.01;101985.28;4998717;28;20022;-58
2021/11/08 07:11:15;;;;;;;6.35;2.75;;;;;;;15.23;47.88;101989.44;5016737;28;20026;-59
2021/11/08 07:13:40;;;;;;;12.98;3.33;;;;;;;15.24;49.53;102003.81;5016678;28;20076;-59
2021/11/08 07:16:05;;;;;;;11.00;3.00;;;;;;;15.24;49.05;102012.78;4997971;28;20057;-58
2021/11/08 07:18:31;;;;;;;18.42;3.53;;;;;;;15.25;48.42;102003.66;4998326;28;20026;-58
2021/11/08 07:20:56;;;;;;;8.32;2.30;;;;;;;15.29;48.16;102004.28;5016009;28;20113;-58
2021/11/08 07:23:22;;;;;;;15.18;3.60;;;;;;;15.29;47.85;102010.53;5015935;28;20061;-58
2021/11/08 07:25:47;;;;;;;15.68;3.88;;;;;;;15.31;48.38;102008.56;5016047;28;20076;-58
2021/11/08 07:28:14;;;;;;;10.07;3.22;;;;;;;15.32;49.20;102010.28;5016306;28;20442;-58
2021/11/08 07:30:43;;;;;;;10.73;3.38;;;;;;;15.33;48.13;102006.56;5015874;28;20030;-58
2021/11/08 07:33:08;;;;;;;8.93;2.63;;;;;;;15.32;48.53;102004.88;5015758;28;20032;-58
2021/11/08 07:35:33;;;;;;;21.48;2.85;;;;;;;15.35;49.06;102010.03;5015615;28;20026;-59
2021/11/08 07:37:59;;;;;;;22.48;3.58;;;;;;;15.37;48.43;102018.84;5015363;28;20092;-58
2021/11/08 07:40:25;;;;;;;14.43;3.72;;;;;;;15.38;49.42;102025.91;5015541;28;20057;-58
2021/11/08 07:42:50;;;;;;;15.05;3.35;;;;;;;15.42;49.22;102032.78;5015657;28;20062;-59
2021/11/08 07:45:16;;;;;;;17.05;3.55;;;;;;;15.41;49.07;102020.25;5015901;28;20042;-59
2021/11/08 07:47:41;;;;;;;9.27;2.97;;;;;;;15.46;49.09;102028.00;5015404;28;20030;-58
2021/11/08 07:50:07;;;;;;;11.80;3.15;;;;;;;15.47;48.41;102024.31;5015535;28;20026;-58
2021/11/08 07:52:33;;;;;;;14.98;3.70;;;;;;;15.49;48.88;102030.47;5015323;28;20167;-59
2021/11/08 07:54:59;;;;;;;11.15;3.22;;;;;;;15.46;48.44;102034.28;5014655;28;20026;-58
2021/11/08 07:57:24;;;;;;;17.60;4.68;;;;;;;15.51;48.50;102039.28;5015191;28;20097;-58
2021/11/08 07:59:50;;;;;;;14.77;3.28;;;;;;;15.46;48.02;102034.28;5015152;28;20104;-59
2021/11/08 08:02:15;;;;;;;20.35;3.22;;;;;;;15.47;49.15;102033.28;5015798;28;20514;-58
2021/11/08 08:04:40;;;;;;;11.45;4.05;;;;;;;15.51;49.40;102039.28;5015301;28;20103;-58
2021/11/08 08:07:07;;;;;;;24.42;4.03;;;;;;;15.52;48.66;102043.72;5015053;28;20394;-59
2021/11/08 08:09:33;;;;;;;16.30;4.43;;;;;;;15.53;48.42;102043.56;5015114;28;20028;-58
2021/11/08 08:11:58;;;;;;;9.05;2.67;;;;;;;15.56;47.77;102045.13;5014759;28;20034;-59
2021/11/08 08:14:24;;;;;;;15.13;3.95;;;;;;;15.57;47.61;102050.44;5014808;28;20148;-59
2021/11/08 08:16:49;;;;;;;17.10;3.72;;;;;;;15.63;49.37;102059.84;5015031;28;20394;-58
2021/11/08 08:19:15;;;;;;;11.55;3.15;;;;;;;15.64;48.13;102056.13;5014705;28;20026;-58
2021/11/08 08:21:40;;;;;;;12.18;3.47;;;;;;;15.64;47.52;102058.84;4997846;28;20026;-58
2021/11/08 08:24:06;;;;;;;15.90;3.60;;;;;;;15.65;47.47;102061.44;5014843;28;20125;-59
2021/11/08 08:26:35;;;;;;;20.65;3.90;;;;;;;15.70;47.32;102064.59;4997157;28;20042;-58
2021/11/08 08:29:07;;;;;;;16.05;3.92;;;;;;;15.74;47.92;102065.19;5014269;28;20117;-58
2021/11/08 08:31:34;;;;;;;16.58;3.60;;;;;;;15.81;47.67;102066.34;5014579;28;20022;-58
2021/11/08 08:33:59;;;;;;;10.20;3.90;;;;;;;15.88;47.42;102069.41;5014494;28;20075;-58
2021/11/08 08:36:25;;;;;;;16.38;3.05;;;;;;;15.96;48.09;102064.19;5014784;28;20029;-58
2021/11/08 08:38:50;;;;;;;7.82;3.10;;;;;;;16.12;48.27;102060.00;5014670;28;20026;-58
2021/11/08 08:41:16;;;;;;;17.77;4.28;;;;;;;16.33;48.44;102061.81;5014955;28;20026;-58
2021/11/08 08:43:42;;;;;;;16.88;5.20;;;;;;;16.44;48.36;102062.56;5015166;28;20034;-58
2021/11/08 08:46:07;;;;;;;14.48;5.80;;;;;;;16.58;47.18;102062.19;4997240;28;20080;-59
2021/11/08 08:48:33;;;;;;;14.93;4.00;;;;;;;16.68;47.08;102063.09;5014964;28;20022;-59
2021/11/08 08:50:59;;;;;;;26.50;6.18;;;;;;;16.80;47.29;102067.41;5014922;28;20034;-58
2021/11/08 08:53:25;;;;;;;21.70;7.35;;;;;;;16.91;48.09;102073.69;4997436;28;20032;-58
2021/11/08 08:55:51;;;;;;;16.77;4.03;;;;;;;16.98;47.89;102066.69;5015084;28;20475;-58
2021/11/08 08:58:16;;;;;;;20.80;4.50;;;;;;;17.05;47.64;102073.28;5014802;28;20487;-59
2021/11/08 09:00:44;;;;;;;37.95;10.25;;;;;;;17.14;46.56;102075.16;5015039;28;20022;-59
2021/11/08 09:03:10;;;;;;;36.20;12.60;;;;;;;17.16;47.60;102068.59;5014986;28;20049;-58
2021/11/08 09:05:35;;;;;;;25.50;6.28;;;;;;;17.24;46.93;102074.16;5014726;28;20598;-59
2021/11/08 09:08:01;;;;;;;21.52;7.88;;;;;;;17.26;46.33;102079.41;5014429;28;20112;-59
2021/11/08 09:10:29;;;;;;;21.42;5.90;;;;;;;17.28;47.32;102089.09;5014344;28;20057;-58
2021/11/08 09:12:55;;;;;;;15.82;4.72;;;;;;;17.33;47.17;102091.41;5014593;28;20037;-58
2021/11/08 09:15:22;;;;;;;20.05;6.40;;;;;;;17.40;47.91;102087.13;5015021;28;20467;-59
2021/11/08 09:17:48;;;;;;;14.07;6.03;;;;;;;17.50;46.85;102087.13;5014852;28;20030;-59
2021/11/08 09:20:14;;;;;;;20.85;5.45;;;;;;;17.69;47.58;102106.97;4997143;28;20190;-58
2021/11/08 09:22:43;;;;;;;22.92;6.97;;;;;;;17.84;46.83;102097.38;5014787;28;20447;-58
2021/11/08 09:25:09;;;;;;;14.68;4.65;;;;;;;18.07;46.68;102097.03;5014982;28;20485;-59
2021/11/08 09:27:34;;;;;;;15.40;4.35;;;;;;;18.21;46.37;102096.56;5015044;28;20030;-58
2021/11/08 09:30:00;;;;;;;12.50;4.28;;;;;;;18.27;45.88;102101.41;5015018;28;20494;-58
2021/11/08 09:32:25;;;;;;;16.35;4.65;;;;;;;18.44;46.52;102097.94;4997786;28;20038;-58
2021/11/08 09:34:52;;;;;;;20.67;5.47;;;;;;;18.70;46.33;102090.00;5015282;28;20034;-59
2021/11/08 09:37:18;;;;;;;15.45;5.25;;;;;;;19.33;44.91;102094.44;5015185;28;20030;-59
2021/11/08 09:39:46;;;;;;;14.98;4.30;;;;;;;19.43;44.96;102105.28;5017337;28;20057;-58
2021/11/08 09:42:14;;;;;;;22.00;5.70;;;;;;;19.56;44.46;102103.88;5019027;28;20029;-59
2021/11/08 09:44:40;;;;;;;21.67;7.43;;;;;;;19.46;45.52;102100.34;5019032;28;20018;-59
2021/11/08 09:47:06;;;;;;;21.55;6.53;;;;;;;19.48;45.26;102097.50;5018899;28;20028;-58
2021/11/08 09:49:32;;;;;;;16.67;3.90;;;;;;;19.50;45.69;102106.34;5018341;28;20034;-58
2021/11/08 09:51:59;;;;;;;21.80;4.53;;;;;;;19.56;45.07;102116.59;5018473;28;20382;-58
2021/11/08 09:54:28;;;;;;;20.52;7.55;;;;;;;19.68;45.50;102109.91;5017913;28;20018;-59
2021/11/08 09:56:55;;;;;;;19.83;5.88;;;;;;;20.07;44.15;102111.22;5017821;28;20033;-59
2021/11/08 09:59:21;;;;;;;19.55;5.35;;;;;;;20.30;43.38;102101.53;5001162;28;20104;-59
2021/11/08 10:01:49;;;;;;;15.82;4.45;;;;;;;20.91;43.40;102097.72;5001146;28;20082;-59
2021/11/08 10:04:15;;;;;;;19.85;5.03;;;;;;;21.64;42.56;102103.34;5000844;28;20479;-59
2021/11/08 10:06:41;;;;;;;19.35;5.45;;;;;;;22.26;41.53;102094.44;5016595;28;20502;-59
2021/11/08 10:09:10;;;;;;;17.70;4.13;;;;;;;22.66;41.81;102092.66;5016283;28;20030;-60
2021/11/08 10:11:37;;;;;;;14.75;4.00;;;;;;;22.94;41.62;102099.34;5016351;28;20033;-60
2021/11/08 10:14:04;;;;;;;15.27;5.00;;;;;;;23.06;40.98;102092.47;5015975;28;20578;-59
2021/11/08 10:16:32;;;;;;;18.33;4.88;;;;;;;23.30;41.26;102092.28;5016058;28;20018;-59
2021/11/08 10:19:03;;;;;;;14.75;4.60;;;;;;;23.45;41.15;102093.22;5016113;28;20026;-59
2021/11/08 10:21:40;;;;;;;22.95;4.90;;;;;;;23.64;39.90;102098.22;5015874;28;20022;-59
2021/11/08 10:24:08;;;;;;;16.83;4.53;;;;;;;23.96;40.59;102101.69;5015857;28;20033;-59
2021/11/08 10:26:36;;;;;;;12.98;3.20;;;;;;;24.22;39.65;102091.19;5015782;28;20080;-59
2021/11/08 10:29:16;;;;;;;18.92;4.18;;;;;;;24.47;39.42;102083.56;5016081;28;20033;-60
2021/11/08 10:32:08;;;;;;;12.93;4.05;;;;;;;24.54;39.09;102084.50;5015855;28;20541;-59
2021/11/08 10:34:43;;;;;;;16.90;4.28;;;;;;;24.68;39.52;102081.72;5012367;28;20402;-59
2021/11/08 10:37:08;;;;;;;14.25;3.95;;;;;;;24.92;38.99;102088.84;5015595;28;20501;-59
2021/11/08 10:39:36;;;;;;;15.88;3.63;;;;;;;24.97;38.97;102080.00;5015243;28;20050;-59
2021/11/08 10:42:02;;;;;;;9.60;2.88;;;;;;;25.19;38.46;102077.13;5015584;28;20064;-60
2021/11/08 10:44:29;;;;;;;15.60;3.80;;;;;;;25.23;38.58;102074.84;5015369;28;20054;-60
2021/11/08 10:47:09;;;;;;;15.20;3.63;;;;;;;25.33;38.21;102080.84;5015392;28;20036;-60
2021/11/08 10:49:38;;;;;;;15.13;4.28;;;;;;;25.34;38.08;102083.41;5015362;28;20026;-59
2021/11/08 10:52:04;;;;;;;15.00;3.70;;;;;;;25.25;38.20;102068.13;5014621;28;20378;-60
2021/11/08 10:54:33;;;;;;;15.02;3.67;;;;;;;25.29;37.58;102074.06;5015350;28;20490;-60
2021/11/08 10:57:12;;;;;;;12.40;4.15;;;;;;;25.33;37.69;102070.72;5015222;28;20022;-60
2021/11/08 10:59:42;;;;;;;20.02;3.88;;;;;;;25.47;37.99;102071.75;5015132;28;20026;-60
2021/11/08 11:02:11;;;;;;;14.82;3.20;;;;;;;25.60;37.13;102074.59;5015274;28;20109;-60
2021/11/08 11:04:43;;;;;;;10.90;3.33;;;;;;;25.53;37.02;102076.44;5014918;28;20018;-60
2021/11/08 11:07:18;;;;;;;19.48;5.25;;;;;;;25.64;37.01;102078.66;5014972;28;20113;-60
2021/11/08 11:09:43;;;;;;;13.82;3.25;;;;;;;25.66;36.55;102068.31;5014820;28;20022;-60
2021/11/08 11:12:12;;;;;;;13.45;3.47;;;;;;;25.64;36.63;102075.91;5015077;28;20088;-60
2021/11/08 11:14:58;;;;;;;20.17;3.85;;;;;;;25.62;36.60;102075.28;5014545;28;20026;-60
2021/11/08 11:17:26;;;;;;;14.57;4.05;;;;;;;25.74;36.63;102073.66;5014772;28;20375;-60
2021/11/08 11:20:04;;;;;;;18.67;5.07;;;;;;;25.90;36.26;102078.91;5014717;28;20026;-60
2021/11/08 11:22:30;;;;;;;11.05;3.10;;;;;;;25.98;36.37;102064.16;5014535;28;20108;-60
2021/11/08 11:24:56;;;;;;;13.80;4.38;;;;;;;26.09;36.09;102065.50;5014639;28;20044;-60
2021/11/08 11:27:25;;;;;;;14.85;3.38;;;;;;;26.10;36.14;102069.94;5014747;28;20029;-60
2021/11/08 11:29:51;;;;;;;16.67;5.15;;;;;;;26.26;35.80;102066.91;5014764;28;20044;-60
2021/11/08 11:32:24;;;;;;;13.88;4.50;;;;;;;26.41;36.18;102059.41;5014470;28;20034;-60
2021/11/08 11:34:49;;;;;;;15.00;3.60;;;;;;;26.37;36.10;102041.63;5014543;28;20455;-60
2021/11/08 11:37:16;;;;;;;14.15;3.72;;;;;;;26.35;35.69;102046.47;5014542;28;20030;-60
2021/11/08 11:39:42;;;;;;;18.90;4.63;;;;;;;26.36;35.97;102046.25;5014029;28;20056;-60
2021/11/08 11:42:07;;;;;;;12.15;3.53;;;;;;;26.40;35.81;102035.72;5014157;28;20395;-60
2021/11/08 11:44:35;;;;;;;10.65;3.60;;;;;;;26.46;35.74;102040.41;5014182;28;20026;-60
2021/11/08 11:47:00;;;;;;;11.68;3.60;;;;;;;26.54;35.49;102043.81;5014432;28;20026;-60
2021/11/08 11:49:26;;;;;;;20.65;4.18;;;;;;;26.61;35.61;102043.84;5013845;28;20553;-60
2021/11/08 11:51:57;;;;;;;14.48;3.30;;;;;;;26.67;35.75;102051.28;4996517;28;20033;-60
2021/11/08 11:54:25;;;;;;;19.55;4.78;;;;;;;26.75;35.57;102051.09;5013948;28;20394;-60
2021/11/08 11:56:52;;;;;;;14.43;3.10;;;;;;;26.83;34.71;102055.63;5013912;28;20025;-60
2021/11/08 11:59:19;;;;;;;17.27;3.85;;;;;;;26.91;34.80;102056.25;5013849;28;20037;-60
2021/11/08 12:01:45;;;;;;;12.65;3.55;;;;;;;27.08;34.51;102046.56;5013964;28;20112;-60
2021/11/08 12:04:11;;;;;;;13.95;3.55;;;;;;;27.16;34.50;102051.88;5013839;28;20119;-60
2021/11/08 12:06:40;;;;;;;12.18;2.80;;;;;;;27.25;34.46;102046.22;5013890;28;20048;-60
2021/11/08 12:09:09;;;;;;;17.98;3.40;;;;;;;27.34;33.99;102043.03;4996358;28;20026;-59
2021/11/08 12:11:47;;;;;;;14.35;2.63;;;;;;;27.41;33.95;102043.09;5013816;28;20049;-60
2021/11/08 12:14:18;;;;;;;10.75;3.00;;;;;;;27.45;33.91;102036.94;5013759;28;20022;-60
2021/11/08 12:17:03;;;;;;;10.13;2.40;;;;;;;27.37;33.70;102039.00;5013758;28;20045;-60
2021/11/08 12:19:40;;;;;;;11.18;2.38;;;;;;;26.92;34.40;102046.09;5013692;28;20026;-61
2021/11/08 12:22:20;;;;;;;8.77;2.55;;;;;;;26.93;34.81;102054.16;5013587;28;20018;-60
2021/11/08 12:25:05;;;;;;;14.60;4.60;;;;;;;26.98;34.42;102048.88;5013705;28;20030;-60
2021/11/08 12:27:38;;;;;;;9.32;2.50;;;;;;;27.00;33.60;102044.00;5013806;28;20032;-60
2021/11/08 12:30:15;;;;;;;16.15;2.75;;;;;;;26.89;33.91;102041.88;5013592;28;20030;-60
2021/11/08 12:32:53;;;;;;;12.30;2.47;;;;;;;26.49;34.56;102034.50;5013529;28;20030;-60
2021/11/08 12:35:41;;;;;;;10.95;2.30;;;;;;;25.96;34.76;102039.63;5013463;28;20390;-60
2021/11/08 12:38:37;;;;;;;14.00;2.45;;;;;;;25.54;34.97;102055.34;5013138;28;20041;-60
2021/11/08 12:41:12;;;;;;;8.98;2.28;;;;;;;25.17;35.02;102050.94;4996938;28;20438;-60
2021/11/08 12:43:41;;;;;;;21.17;4.15;;;;;;;24.86;35.53;102046.59;5013740;28;20415;-60
2021/11/08 12:46:19;;;;;;;13.70;2.80;;;;;;;24.57;35.76;102051.22;5013724;28;20644;-59
2021/11/08 12:48:45;;;;;;;14.52;2.65;;;;;;;24.36;35.68;102048.41;5013861;28;20076;-60
2021/11/08 12:51:14;;;;;;;11.20;2.33;;;;;;;24.30;35.27;102045.41;5013484;28;20106;-60
2021/11/08 12:53:45;;;;;;;7.25;2.13;;;;;;;24.47;34.88;102046.03;5013457;28;20033;-60
2021/11/08 12:56:24;;;;;;;8.15;1.92;;;;;;;24.68;34.37;102057.06;5013352;28;20029;-60
2021/11/08 12:58:56;;;;;;;14.18;2.72;;;;;;;24.84;34.63;102054.16;5013546;28;20391;-60
2021/11/08 13:01:25;;;;;;;16.63;3.20;;;;;;;24.98;34.51;102057.03;5013410;28;20029;-60
2021/11/08 13:03:53;;;;;;;6.15;2.13;;;;;;;24.77;35.01;102055.06;5013510;28;20268;-60
2021/11/08 13:06:27;;;;;;;14.57;2.05;;;;;;;24.48;35.29;102047.75;5013638;28;20050;-60
2021/11/08 13:09:23;;;;;;;10.07;2.10;;;;;;;24.21;35.20;102041.03;5013369;28;20076;-60
2021/11/08 13:11:52;;;;;;;7.68;2.20;;;;;;;24.04;35.08;102033.16;4980240;28;20041;-60
2021/11/08 13:14:28;;;;;;;12.52;2.22;;;;;;;23.89;35.53;102046.00;5014689;28;20028;-60